Terminal Aerodrome Forecast
Issued by NWS Charleston, WV

Current Version | Previous Version | Text Only | Print | Product List | Glossary Off
Versions: 1 2 3 4 5 6 7 8 9 10 11 12 13 14 15 16 17 18 19 20 21 22 23 24 25 26 27 28

363
FTUS41 KRLX 121735
TAFEKN
TAF
KEKN 121735Z 1218/1318 31014G24KT 1 1/2SM -SN OVC020
      TEMPO 1218/1219 1/2SM SN BKN010
     FM121900 30015G26KT 3SM -SHSN OVC025
      TEMPO 1219/1221 1SM -SN BKN012
     FM122100 29015G26KT P6SM OVC040
      TEMPO 1221/1301 2SM -SHSN OVC015
     FM130200 30015G26KT 3SM -SN OVC025
     FM131200 29009G16KT P6SM -SN BKN025
     FM131600 28008G14KT P6SM SCT250=

USA.gov is the U.S. government's official web portal to all federal, state and local government web resources and services.